Time,TemperatureF,DewpointF,PressureIn,WindDirection,WindDirectionDegrees,WindSpeedMPH,WindSpeedGustMPH,Humidity,HourlyPrecipIn,Conditions,Clouds,dailyrainin,SoftwareType,DateUTC
2013-04-23 00:01:00,58.0,13.0,29.42,West,276,3.0,-999.0,17,-99.99,,,0.00,weatherlink.com 1.10,2013-04-23 06:01:00,
2013-04-23 00:16:00,56.6,13.0,29.42,West,276,2.0,-999.0,18,-99.99,,,0.00,weatherlink.com 1.10,2013-04-23 06:16:00,
2013-04-23 00:31:00,56.5,13.0,29.41,West,276,3.0,-999.0,18,-99.99,,,0.00,weatherlink.com 1.10,2013-04-23 06:31:00,
2013-04-23 00:46:00,56.0,13.0,29.43,West,281,5.0,-999.0,18,-99.99,,,0.00,weatherlink.com 1.10,2013-04-23 06:46:00,
2013-04-23 01:01:00,54.4,13.0,29.43,West,279,10.0,-999.0,19,-99.99,,,0.00,weatherlink.com 1.10,2013-04-23 07:01:00,
2013-04-23 01:16:00,53.5,13.0,29.45,West,274,4.0,-999.0,20,-99.99,,,0.00,weatherlink.com 1.10,2013-04-23 07:16:00,
2013-04-23 01:31:00,53.8,13.0,29.43,WNW,302,2.0,-999.0,20,-99.99,,,0.00,weatherlink.com 1.10,2013-04-23 07:31:00,
2013-04-23 01:46:00,53.9,14.0,29.43,WNW,297,1.0,-999.0,20,-99.99,,,0.00,weatherlink.com 1.10,2013-04-23 07:46:00,
2013-04-23 02:01:00,53.2,14.0,29.44,WNW,283,2.0,-999.0,21,-99.99,,,0.00,weatherlink.com 1.10,2013-04-23 08:01:00,
2013-04-23 02:16:00,52.9,15.0,29.43,WNW,287,7.0,-999.0,22,-99.99,,,0.00,weatherlink.com 1.10,2013-04-23 08:16:00,
2013-04-23 02:31:00,52.8,15.0,29.43,WNW,300,7.0,-999.0,22,-99.99,,,0.00,weatherlink.com 1.10,2013-04-23 08:31:00,
2013-04-23 02:46:00,52.9,15.0,29.42,WNW,294,7.0,-999.0,22,-99.99,,,0.00,weatherlink.com 1.10,2013-04-23 08:46:00,
2013-04-23 03:01:00,51.4,16.0,29.43,WNW,293,5.0,-999.0,24,-99.99,,,0.00,weatherlink.com 1.10,2013-04-23 09:01:00,
2013-04-23 03:16:00,50.8,16.0,29.45,WNW,294,7.0,-999.0,25,-99.99,,,0.00,weatherlink.com 1.10,2013-04-23 09:16:00,
2013-04-23 03:32:00,50.4,17.0,29.44,WSW,253,9.0,-999.0,27,-99.99,,,0.00,weatherlink.com 1.10,2013-04-23 09:32:00,
2013-04-23 03:47:00,49.1,18.0,29.45,West,265,3.0,-999.0,29,-99.99,,,0.00,weatherlink.com 1.10,2013-04-23 09:47:00,
2013-04-23 04:02:00,49.2,19.0,29.45,WNW,297,9.0,-999.0,30,-99.99,,,0.00,weatherlink.com 1.10,2013-04-23 10:02:00,
2013-04-23 04:17:00,48.3,20.0,29.47,WNW,302,7.0,-999.0,33,-99.99,,,0.00,weatherlink.com 1.10,2013-04-23 10:17:00,
2013-04-23 04:32:00,47.4,21.0,29.47,NNW,330,10.0,-999.0,36,-99.99,,,0.00,weatherlink.com 1.10,2013-04-23 10:32:00,
2013-04-23 04:47:00,47.0,22.0,29.49,NW,315,10.0,-999.0,38,-99.99,,,0.00,weatherlink.com 1.10,2013-04-23 10:47:00,
2013-04-23 05:02:00,46.5,23.0,29.50,NW,304,4.0,-999.0,39,-99.99,,,0.00,weatherlink.com 1.10,2013-04-23 11:02:00,
2013-04-23 05:17:00,46.1,23.0,29.50,NW,323,6.0,-999.0,40,-99.99,,,0.00,weatherlink.com 1.10,2013-04-23 11:17:00,
2013-04-23 05:32:00,46.0,23.0,29.52,NW,325,4.0,-999.0,40,-99.99,,,0.00,weatherlink.com 1.10,2013-04-23 11:32:00,
2013-04-23 05:47:00,45.8,23.0,29.53,NW,322,13.0,-999.0,40,-99.99,,,0.00,weatherlink.com 1.10,2013-04-23 11:47:00,
2013-04-23 06:02:00,45.5,22.0,29.54,WNW,302,5.0,-999.0,39,-99.99,,,0.00,weatherlink.com 1.10,2013-04-23 12:02:00,
2013-04-23 06:18:00,45.1,21.0,29.54,WNW,293,7.0,-999.0,39,-99.99,,,0.00,weatherlink.com 1.10,2013-04-23 12:18:00,
2013-04-23 06:33:00,44.5,21.0,29.55,WNW,290,7.0,-999.0,39,-99.99,,,0.00,weatherlink.com 1.10,2013-04-23 12:33:00,
2013-04-23 06:48:00,44.6,21.0,29.57,NW,308,13.0,-999.0,39,-99.99,,,0.00,weatherlink.com 1.10,2013-04-23 12:48:00,
2013-04-23 07:03:00,44.9,21.0,29.57,WNW,302,9.0,-999.0,39,-99.99,,,0.00,weatherlink.com 1.10,2013-04-23 13:03:00,
2013-04-23 07:18:00,45.5,20.0,29.58,WNW,282,10.0,-999.0,37,-99.99,,,0.00,weatherlink.com 1.10,2013-04-23 13:18:00,
2013-04-23 07:34:00,46.1,20.0,29.60,WNW,285,10.0,-999.0,35,-99.99,,,0.00,weatherlink.com 1.10,2013-04-23 13:34:00,
2013-04-23 07:49:00,46.8,19.0,29.61,WSW,258,4.0,-999.0,33,-99.99,,,0.00,weatherlink.com 1.10,2013-04-23 13:49:00,
2013-04-23 08:04:00,47.6,17.0,29.61,WNW,285,8.0,-999.0,29,-99.99,,,0.00,weatherlink.com 1.10,2013-04-23 14:04:00,
2013-04-23 08:19:00,48.0,17.0,29.61,West,278,9.0,-999.0,29,-99.99,,,0.00,weatherlink.com 1.10,2013-04-23 14:19:00,
2013-04-23 08:35:00,48.5,17.0,29.62,WNW,284,6.0,-999.0,28,-99.99,,,0.00,weatherlink.com 1.10,2013-04-23 14:35:00,
2013-04-23 09:04:00,49.2,15.0,29.62,West,271,8.0,-999.0,26,-99.99,,,0.00,weatherlink.com 1.10,2013-04-23 15:04:00,
2013-04-23 09:20:00,50.1,14.0,29.62,WSW,257,14.0,-999.0,24,-99.99,,,0.00,weatherlink.com 1.10,2013-04-23 15:20:00,
2013-04-23 09:35:00,51.4,12.0,29.64,WSW,254,15.0,-999.0,21,-99.99,,,0.00,weatherlink.com 1.10,2013-04-23 15:35:00,
2013-04-23 09:49:00,51.3,13.0,29.64,West,264,12.0,-999.0,22,-99.99,,,0.00,weatherlink.com 1.10,2013-04-23 15:49:00,
2013-04-23 10:04:00,51.4,12.0,29.64,WNW,301,12.0,-999.0,21,-99.99,,,0.00,weatherlink.com 1.10,2013-04-23 16:04:00,
2013-04-23 10:20:00,51.7,14.0,29.65,WSW,246,11.0,-999.0,22,-99.99,,,0.00,weatherlink.com 1.10,2013-04-23 16:20:00,
2013-04-23 10:35:00,51.9,14.0,29.66,WSW,247,9.0,-999.0,22,-99.99,,,0.00,weatherlink.com 1.10,2013-04-23 16:35:00,
2013-04-23 10:51:00,51.6,13.0,29.67,SW,231,16.0,-999.0,21,-99.99,,,0.00,weatherlink.com 1.10,2013-04-23 16:51:00,
2013-04-23 11:06:00,52.0,13.0,29.66,WSW,257,17.0,-999.0,21,-99.99,,,0.00,weatherlink.com 1.10,2013-04-23 17:06:00,
2013-04-23 11:20:00,53.1,13.0,29.66,WSW,257,7.0,-999.0,20,-99.99,,,0.00,weatherlink.com 1.10,2013-04-23 17:20:00,
2013-04-23 11:35:00,53.1,12.0,29.68,West,278,14.0,-999.0,19,-99.99,,,0.00,weatherlink.com 1.10,2013-04-23 17:35:00,
2013-04-23 11:51:00,53.3,12.0,29.68,NW,304,14.0,-999.0,19,-99.99,,,0.00,weatherlink.com 1.10,2013-04-23 17:51:00,
2013-04-23 12:06:00,52.8,14.0,29.68,WSW,258,16.0,-999.0,21,-99.99,,,0.00,weatherlink.com 1.10,2013-04-23 18:06:00,
2013-04-23 12:21:00,53.1,13.0,29.67,WSW,247,15.0,-999.0,20,-99.99,,,0.00,weatherlink.com 1.10,2013-04-23 18:21:00,
2013-04-23 12:35:00,53.9,12.0,29.69,SW,218,14.0,-999.0,19,-99.99,,,0.00,weatherlink.com 1.10,2013-04-23 18:35:00,
2013-04-23 12:51:00,54.2,13.0,29.68,WNW,282,9.0,-999.0,19,-99.99,,,0.00,weatherlink.com 1.10,2013-04-23 18:51:00,
2013-04-23 13:06:00,54.4,11.0,29.68,West,262,21.0,-999.0,18,-99.99,,,0.00,weatherlink.com 1.10,2013-04-23 19:06:00,
2013-04-23 13:21:00,53.6,10.0,29.68,West,274,19.0,-999.0,17,-99.99,,,0.00,weatherlink.com 1.10,2013-04-23 19:21:00,
2013-04-23 13:36:00,53.9,10.0,29.70,WSW,256,28.0,-999.0,17,-99.99,,,0.00,weatherlink.com 1.10,2013-04-23 19:36:00,
2013-04-23 13:52:00,55.0,8.0,29.70,West,274,17.0,-999.0,15,-99.99,,,0.00,weatherlink.com 1.10,2013-04-23 19:52:00,
2013-04-23 14:07:00,55.0,6.0,29.71,West,278,12.0,-999.0,14,-99.99,,,0.00,weatherlink.com 1.10,2013-04-23 20:07:00,
2013-04-23 14:21:00,54.5,8.0,29.70,West,262,25.0,-999.0,15,-99.99,,,0.00,weatherlink.com 1.10,2013-04-23 20:21:00,
2013-04-23 14:36:00,55.1,6.0,29.71,West,263,17.0,-999.0,14,-99.99,,,0.00,weatherlink.com 1.10,2013-04-23 20:36:00,
2013-04-23 14:53:00,55.0,6.0,29.71,West,276,22.0,-999.0,14,-99.99,,,0.00,weatherlink.com 1.10,2013-04-23 20:53:00,
2013-04-23 15:06:00,55.4,7.0,29.71,WSW,257,21.0,-999.0,14,-99.99,,,0.00,weatherlink.com 1.10,2013-04-23 21:06:00,
2013-04-23 15:22:00,55.4,7.0,29.71,West,278,18.0,-999.0,14,-99.99,,,0.00,weatherlink.com 1.10,2013-04-23 21:22:00,
2013-04-23 15:38:00,56.6,8.0,29.73,WNW,282,14.0,-999.0,14,-99.99,,,0.00,weatherlink.com 1.10,2013-04-23 21:38:00,
2013-04-23 15:52:00,56.5,6.0,29.72,West,274,11.0,-999.0,13,-99.99,,,0.00,weatherlink.com 1.10,2013-04-23 21:52:00,
2013-04-23 16:07:00,56.3,6.0,29.72,WNW,293,9.0,-999.0,13,-99.99,,,0.00,weatherlink.com 1.10,2013-04-23 22:07:00,
2013-04-23 16:23:00,56.7,6.0,29.72,WSW,252,18.0,-999.0,13,-99.99,,,0.00,weatherlink.com 1.10,2013-04-23 22:23:00,
2013-04-23 16:38:00,57.0,5.0,29.73,WNW,293,13.0,-999.0,12,-99.99,,,0.00,weatherlink.com 1.10,2013-04-23 22:38:00,
2013-04-23 16:54:00,56.9,5.0,29.73,WNW,299,12.0,-999.0,12,-99.99,,,0.00,weatherlink.com 1.10,2013-04-23 22:54:00,
2013-04-23 17:08:00,56.5,2.0,29.74,NW,315,10.0,-999.0,11,-99.99,,,0.00,weatherlink.com 1.10,2013-04-23 23:08:00,
2013-04-23 17:23:00,56.2,-2.0,29.75,West,272,16.0,-999.0,9,-99.99,,,0.00,weatherlink.com 1.10,2013-04-23 23:23:00,
2013-04-23 17:39:00,56.2,0.0,29.77,NW,304,10.0,-999.0,10,-99.99,,,0.00,weatherlink.com 1.10,2013-04-23 23:39:00,
2013-04-23 17:54:00,55.7,2.0,29.77,NW,308,8.0,-999.0,11,-99.99,,,0.00,weatherlink.com 1.10,2013-04-23 23:54:00,
2013-04-23 18:08:00,55.7,2.0,29.77,WNW,293,10.0,-999.0,11,-99.99,,,0.00,weatherlink.com 1.10,2013-04-24 00:08:00,
2013-04-23 18:23:00,54.8,-1.0,29.78,WNW,302,15.0,-999.0,10,-99.99,,,0.00,weatherlink.com 1.10,2013-04-24 00:23:00,
2013-04-23 18:40:00,54.5,-1.0,29.79,NNW,329,9.0,-999.0,10,-99.99,,,0.00,weatherlink.com 1.10,2013-04-24 00:40:00,
2013-04-23 18:54:00,54.1,-2.0,29.79,NW,309,6.0,-999.0,10,-99.99,,,0.00,weatherlink.com 1.10,2013-04-24 00:54:00,
2013-04-23 19:09:00,53.2,-5.0,29.80,NW,316,5.0,-999.0,9,-99.99,,,0.00,weatherlink.com 1.10,2013-04-24 01:09:00,
2013-04-23 19:24:00,51.6,-4.0,29.81,NNW,331,12.0,-999.0,10,-99.99,,,0.00,weatherlink.com 1.10,2013-04-24 01:24:00,
2013-04-23 19:40:00,50.4,-5.0,29.80,NW,315,4.0,-999.0,10,-99.99,,,0.00,weatherlink.com 1.10,2013-04-24 01:40:00,
2013-04-23 19:55:00,48.6,-6.0,29.81,NNW,328,4.0,-999.0,10,-99.99,,,0.00,weatherlink.com 1.10,2013-04-24 01:55:00,
2013-04-23 20:10:00,47.0,-5.0,29.83,NNW,331,2.0,-999.0,11,-99.99,,,0.00,weatherlink.com 1.10,2013-04-24 02:10:00,
2013-04-23 20:25:00,45.5,-6.0,29.84,NNW,331,2.0,-999.0,11,-99.99,,,0.00,weatherlink.com 1.10,2013-04-24 02:25:00,
2013-04-23 20:40:00,46.4,-8.0,29.83,NW,309,5.0,-999.0,10,-99.99,,,0.00,weatherlink.com 1.10,2013-04-24 02:40:00,
2013-04-23 21:10:00,44.1,-8.0,29.84,NW,307,0.0,-999.0,11,-99.99,,,0.00,weatherlink.com 1.10,2013-04-24 03:10:00,
2013-04-23 21:25:00,41.5,-10.0,29.87,NW,309,4.0,-999.0,11,-99.99,,,0.00,weatherlink.com 1.10,2013-04-24 03:25:00,
2013-04-23 21:40:00,42.3,-9.0,29.86,NNW,328,2.0,-999.0,11,-99.99,,,0.00,weatherlink.com 1.10,2013-04-24 03:40:00,
2013-04-23 21:56:00,42.2,-9.0,29.88,NNW,328,0.0,-999.0,11,-99.99,,,0.00,weatherlink.com 1.10,2013-04-24 03:56:00,
2013-04-23 22:11:00,40.6,-7.0,29.89,NNW,328,4.0,-999.0,13,-99.99,,,0.00,weatherlink.com 1.10,2013-04-24 04:11:00,
2013-04-23 22:26:00,40.8,-5.0,29.89,NNW,328,2.0,-999.0,14,-99.99,,,0.00,weatherlink.com 1.10,2013-04-24 04:26:00,
2013-04-23 22:41:00,40.6,-4.0,29.90,NNW,328,0.0,-999.0,15,-99.99,,,0.00,weatherlink.com 1.10,2013-04-24 04:41:00,
2013-04-23 22:56:00,38.9,-4.0,29.92,NNW,340,4.0,-999.0,16,-99.99,,,0.00,weatherlink.com 1.10,2013-04-24 04:56:00,
2013-04-23 23:11:00,38.5,-4.0,29.91,NE,56,3.0,-999.0,16,-99.99,,,0.00,weatherlink.com 1.10,2013-04-24 05:11:00,
2013-04-23 23:26:00,37.3,-4.0,29.92,ENE,57,5.0,-999.0,17,-99.99,,,0.00,weatherlink.com 1.10,2013-04-24 05:26:00,
2013-04-23 23:41:00,36.9,-4.0,29.93,NE,56,1.0,-999.0,17,-99.99,,,0.00,weatherlink.com 1.10,2013-04-24 05:41:00,
2013-04-23 23:56:00,34.9,-4.0,29.94,NE,56,4.0,-999.0,19,-99.99,,,0.00,weatherlink.com 1.10,2013-04-24 05:56:00,